createdAt,value
2019-06-26T00:04:35.494Z,8.80
2019-06-26T00:09:38.222Z,9.73
2019-06-26T00:14:40.912Z,8.80
2019-06-26T00:19:43.608Z,10.00
2019-06-26T00:24:46.326Z,9.93
2019-06-26T00:29:49.290Z,9.00
2019-06-26T00:34:52.074Z,10.17
2019-06-26T00:39:54.756Z,9.37
2019-06-26T00:44:57.466Z,9.20
2019-06-26T00:50:00.841Z,9.00
2019-06-26T00:55:05.343Z,8.57
2019-06-26T01:00:09.214Z,8.73
2019-06-26T01:05:13.137Z,10.70
2019-06-26T01:10:17.861Z,10.10
2019-06-26T01:15:20.671Z,9.73
2019-06-26T01:20:23.393Z,9.23
2019-06-26T01:25:26.084Z,10.07
2019-06-26T01:30:28.781Z,9.67
2019-06-26T01:35:31.495Z,8.90
2019-06-26T01:40:34.192Z,9.93
2019-06-26T01:45:36.907Z,9.13
2019-06-26T01:50:39.650Z,10.20
2019-06-26T01:55:42.422Z,9.23
2019-06-26T02:00:45.124Z,9.70
2019-06-26T02:05:47.839Z,10.80
2019-06-26T02:10:50.530Z,9.30
2019-06-26T02:15:53.244Z,10.30
2019-06-26T02:20:55.970Z,10.77
2019-06-26T02:25:58.671Z,10.37
2019-06-26T02:31:01.372Z,10.43
2019-06-26T02:36:04.096Z,9.37
2019-06-26T02:41:06.946Z,10.73
2019-06-26T02:46:09.677Z,10.10
2019-06-26T02:51:12.459Z,10.70
2019-06-26T02:56:15.149Z,11.60
2019-06-26T03:01:17.900Z,11.10
2019-06-26T03:06:20.627Z,12.20
2019-06-26T03:11:23.356Z,10.93
2019-06-26T03:16:26.099Z,11.40
2019-06-26T03:21:28.816Z,11.03
2019-06-26T03:26:31.594Z,11.47
2019-06-26T03:31:34.406Z,12.83
2019-06-26T03:36:37.175Z,12.87
2019-06-26T03:41:39.901Z,12.53
2019-06-26T03:46:42.620Z,11.20
2019-06-26T03:51:45.333Z,10.70
2019-06-26T03:56:48.066Z,11.80
2019-06-26T04:01:50.787Z,11.03
2019-06-26T04:06:54.403Z,11.93
2019-06-26T04:11:57.211Z,11.63
2019-06-26T04:16:59.946Z,12.20
2019-06-26T04:22:02.709Z,11.53
2019-06-26T04:27:05.519Z,13.67
2019-06-26T04:32:08.227Z,11.30
2019-06-26T04:37:11.058Z,12.30
2019-06-26T04:42:13.760Z,14.00
2019-06-26T04:47:16.473Z,12.87
2019-06-26T04:52:19.173Z,13.03
2019-06-26T04:57:21.867Z,12.50
2019-06-26T05:02:24.838Z,14.63
2019-06-26T05:07:27.544Z,14.97
2019-06-26T05:12:30.263Z,13.90
2019-06-26T05:17:33.008Z,13.10
2019-06-26T05:22:35.716Z,14.17
2019-06-26T05:27:38.427Z,14.87
2019-06-26T05:32:41.120Z,14.10
2019-06-26T05:37:43.830Z,14.30
2019-06-26T05:42:46.527Z,13.30
2019-06-26T05:47:49.223Z,13.07
2019-06-26T05:52:51.919Z,14.40
2019-06-26T05:57:54.893Z,13.93
2019-06-26T06:02:58.252Z,13.70
2019-06-26T06:08:01.323Z,16.27
2019-06-26T06:13:04.035Z,15.87
2019-06-26T06:18:06.750Z,14.13
2019-06-26T06:23:09.450Z,13.13
2019-06-26T06:28:12.138Z,14.10
2019-06-26T06:33:14.833Z,13.83
2019-06-26T06:38:17.533Z,14.03
2019-06-26T06:43:20.231Z,14.93
2019-06-26T06:48:22.954Z,17.10
2019-06-26T06:53:25.668Z,17.47
2019-06-26T06:58:30.226Z,18.57
2019-06-26T07:03:33.006Z,16.93
2019-06-26T07:08:35.723Z,17.90
2019-06-26T07:13:38.456Z,17.67
2019-06-26T07:18:41.255Z,16.67
2019-06-26T07:23:44.090Z,18.00
2019-06-26T07:28:46.878Z,18.73
2019-06-26T07:33:49.684Z,19.20
2019-06-26T07:38:52.419Z,19.20
2019-06-26T07:43:55.123Z,18.53
2019-06-26T07:48:57.836Z,16.90
2019-06-26T07:54:00.547Z,16.33
2019-06-26T07:59:03.330Z,14.20
2019-06-26T08:04:06.156Z,13.20
2019-06-26T08:09:08.867Z,13.00
2019-06-26T08:14:11.565Z,14.50
2019-06-26T08:19:14.267Z,12.00
2019-06-26T08:24:16.983Z,12.60
2019-06-26T08:29:19.680Z,12.97
2019-06-26T08:34:22.423Z,11.00
2019-06-26T08:39:25.192Z,12.50
2019-06-26T08:44:47.467Z,11.93
2019-06-26T08:49:50.174Z,13.80
2019-06-26T08:54:52.865Z,11.57
2019-06-26T08:59:55.559Z,11.03
2019-06-26T09:04:58.249Z,8.63
2019-06-26T09:10:00.964Z,10.97
2019-06-26T09:15:04.318Z,11.63
2019-06-26T09:20:08.339Z,10.30
2019-06-26T09:25:21.624Z,11.80
2019-06-26T09:30:16.057Z,10.77
2019-06-26T09:35:18.760Z,11.37
2019-06-26T09:40:21.551Z,9.93
2019-06-26T09:45:24.364Z,10.33
2019-06-26T09:50:27.054Z,10.03
2019-06-26T09:55:29.754Z,9.43
2019-06-26T10:00:32.752Z,10.50
2019-06-26T10:05:35.435Z,11.23
2019-06-26T10:10:38.139Z,10.60
2019-06-26T10:15:41.007Z,11.10
2019-06-26T10:20:43.717Z,9.73
2019-06-26T10:25:46.435Z,10.47
2019-06-26T10:30:49.179Z,10.53
2019-06-26T10:35:51.904Z,9.80
2019-06-26T10:40:54.632Z,10.23
2019-06-26T10:45:57.353Z,10.87
2019-06-26T10:51:00.054Z,9.50
2019-06-26T10:56:02.841Z,10.50
2019-06-26T11:01:06.039Z,8.70
2019-06-26T11:06:08.799Z,10.20
2019-06-26T11:11:11.509Z,10.93
2019-06-26T11:16:14.243Z,9.70
2019-06-26T11:21:16.936Z,9.73
2019-06-26T11:26:19.668Z,9.23
2019-06-26T11:31:22.372Z,9.40
2019-06-26T11:36:25.077Z,9.37
2019-06-26T11:41:27.807Z,11.00
2019-06-26T11:46:30.500Z,10.93
2019-06-26T11:51:33.219Z,10.50
2019-06-26T11:56:35.933Z,10.10
2019-06-26T12:01:38.631Z,8.30
2019-06-26T12:06:41.347Z,9.00
2019-06-26T12:11:44.173Z,7.90
2019-06-26T12:16:46.955Z,8.20
2019-06-26T12:21:49.668Z,7.90
2019-06-26T12:26:52.396Z,7.50
2019-06-26T12:31:55.329Z,6.80
2019-06-26T12:36:58.148Z,6.07
2019-06-26T12:42:00.941Z,6.80
2019-06-26T12:47:03.678Z,6.73
2019-06-26T12:52:06.484Z,5.93
2019-06-26T12:57:09.205Z,5.93
2019-06-26T13:02:11.907Z,6.70
2019-06-26T13:07:14.608Z,6.70
2019-06-26T13:12:17.316Z,6.67
2019-06-26T13:17:20.045Z,6.00
2019-06-26T13:22:22.823Z,6.70
2019-06-26T13:27:25.631Z,6.50
2019-06-26T13:32:28.347Z,6.60
2019-06-26T13:37:31.151Z,7.40
2019-06-26T13:42:33.872Z,6.87
2019-06-26T13:47:36.599Z,7.47
2019-06-26T13:52:39.329Z,6.70
2019-06-26T13:57:42.059Z,6.00
2019-06-26T14:02:44.788Z,6.43
2019-06-26T14:07:47.531Z,5.97
2019-06-26T14:12:50.214Z,5.63
2019-06-26T14:17:52.941Z,7.17
2019-06-26T14:22:55.638Z,6.60
2019-06-26T14:27:58.344Z,6.37
2019-06-26T14:33:01.075Z,6.50
2019-06-26T14:38:03.785Z,6.33
2019-06-26T14:43:06.490Z,5.50
2019-06-26T14:48:09.272Z,6.33
2019-06-26T14:53:12.020Z,5.87
2019-06-26T14:58:14.742Z,5.80
2019-06-26T15:03:17.458Z,5.80
2019-06-26T15:08:20.179Z,5.43
2019-06-26T15:13:22.902Z,5.63
2019-06-26T15:18:25.842Z,6.30
2019-06-26T15:23:28.610Z,6.17
2019-06-26T15:28:31.332Z,6.90
2019-06-26T15:33:36.587Z,6.80
2019-06-26T15:38:38.752Z,7.00
2019-06-26T15:43:41.499Z,7.40
2019-06-26T15:48:44.244Z,6.90
2019-06-26T15:53:47.065Z,6.60
2019-06-26T15:58:49.785Z,6.73
2019-06-26T16:03:52.537Z,6.33
2019-06-26T16:08:55.264Z,5.93
2019-06-26T16:13:58.677Z,5.63
2019-06-26T16:19:06.381Z,5.70
2019-06-26T16:24:09.286Z,5.90
2019-06-26T16:29:12.035Z,5.73
2019-06-26T16:34:14.892Z,5.30
2019-06-26T16:39:17.598Z,4.27
2019-06-26T16:44:21.024Z,3.80
2019-06-26T16:49:23.843Z,3.90
2019-06-26T16:54:26.697Z,4.07
2019-06-26T16:59:29.412Z,3.40
2019-06-26T17:04:32.141Z,3.00
2019-06-26T17:09:35.197Z,3.67
2019-06-26T17:14:37.987Z,5.07
2019-06-26T17:19:40.717Z,3.37
2019-06-26T17:24:43.438Z,2.80
2019-06-26T17:29:46.149Z,2.93
2019-06-26T17:34:48.882Z,4.30
2019-06-26T17:39:51.617Z,3.70
2019-06-26T17:44:54.999Z,3.50
2019-06-26T17:49:57.763Z,3.67
2019-06-26T17:55:00.493Z,4.00
2019-06-26T18:00:05.554Z,4.50
2019-06-26T18:05:08.567Z,3.97
2019-06-26T18:10:11.278Z,4.90
2019-06-26T18:15:14.086Z,5.20
2019-06-26T18:20:17.616Z,4.90
2019-06-26T18:25:20.524Z,5.33
2019-06-26T18:30:23.276Z,6.03
2019-06-26T18:35:26.006Z,5.90
2019-06-26T18:40:28.702Z,5.63
2019-06-26T18:45:35.948Z,6.40
2019-06-26T18:50:38.730Z,7.77
2019-06-26T18:55:43.584Z,6.07
2019-06-26T19:00:46.324Z,5.70
2019-06-26T19:05:49.083Z,6.20
2019-06-26T19:10:51.772Z,5.77
2019-06-26T19:15:54.760Z,5.47
2019-06-26T19:20:57.651Z,4.90
2019-06-26T19:26:01.054Z,4.57
2019-06-26T19:31:04.066Z,4.10
2019-06-26T19:36:07.040Z,4.33
2019-06-26T19:41:09.828Z,3.80
2019-06-26T19:46:12.580Z,3.30
2019-06-26T19:51:15.317Z,3.00
2019-06-26T19:56:20.228Z,3.60
2019-06-26T20:01:22.720Z,2.40
2019-06-26T20:06:25.475Z,2.07
2019-06-26T20:11:28.203Z,1.63
2019-06-26T20:16:30.955Z,1.93
2019-06-26T20:21:34.233Z,2.03
2019-06-26T20:26:36.957Z,2.10
2019-06-26T20:31:39.683Z,2.20
2019-06-26T20:36:42.784Z,2.30
2019-06-26T20:41:45.565Z,2.90
2019-06-26T20:46:48.346Z,2.40
2019-06-26T20:51:51.036Z,1.80
2019-06-26T20:56:53.736Z,2.20
2019-06-26T21:01:56.496Z,2.10
2019-06-26T21:06:59.291Z,2.43
2019-06-26T21:12:02.007Z,2.70
2019-06-26T21:17:04.775Z,2.80
2019-06-26T21:22:08.989Z,3.33
2019-06-26T21:27:12.122Z,3.03
2019-06-26T21:32:14.853Z,2.60
2019-06-26T21:37:17.593Z,3.27
2019-06-26T21:42:20.568Z,3.20
2019-06-26T21:47:23.281Z,3.80
2019-06-26T21:52:25.996Z,3.37
2019-06-26T21:57:29.002Z,3.63
2019-06-26T22:02:32.074Z,3.60
2019-06-26T22:07:35.371Z,4.03
2019-06-26T22:12:38.431Z,3.10
2019-06-26T22:17:41.230Z,4.10
2019-06-26T22:22:43.929Z,3.93
2019-06-26T22:27:46.917Z,4.70
2019-06-26T22:32:49.623Z,3.70
2019-06-26T22:37:52.350Z,3.93
2019-06-26T22:42:55.069Z,5.27
2019-06-26T22:47:57.790Z,4.97
2019-06-26T22:53:00.511Z,5.90
2019-06-26T22:58:03.232Z,6.10
2019-06-26T23:03:06.227Z,5.10
2019-06-26T23:08:08.936Z,5.37
2019-06-26T23:13:11.666Z,4.07
2019-06-26T23:18:15.315Z,3.70
2019-06-26T23:23:18.051Z,4.50
2019-06-26T23:28:20.818Z,4.50
2019-06-26T23:33:23.522Z,3.37
2019-06-26T23:38:26.222Z,3.17
2019-06-26T23:43:28.944Z,3.60
2019-06-26T23:48:31.660Z,3.53
2019-06-26T23:53:34.382Z,3.50
2019-06-26T23:58:37.132Z,3.60
